createdAt,value
2017-12-30T00:00:28.521Z,99.99
2017-12-30T00:01:28.527Z,99.99
2017-12-30T00:02:28.237Z,99.99
2017-12-30T00:03:28.497Z,99.99
2017-12-30T00:04:28.223Z,99.99
2017-12-30T00:05:28.484Z,99.99
2017-12-30T00:06:28.480Z,99.99
2017-12-30T00:07:28.196Z,99.99
2017-12-30T00:08:28.194Z,99.99
2017-12-30T00:09:28.451Z,99.99
2017-12-30T00:10:28.424Z,99.99
2017-12-30T00:11:28.158Z,99.99
2017-12-30T00:12:28.421Z,99.99
2017-12-30T00:13:28.417Z,99.99
2017-12-30T00:14:28.148Z,99.99
2017-12-30T00:15:28.140Z,99.99
2017-12-30T00:16:28.392Z,99.99
2017-12-30T00:17:28.365Z,99.99
2017-12-30T00:18:28.350Z,99.99
2017-12-30T00:19:28.349Z,99.99
2017-12-30T00:20:28.357Z,99.99
2017-12-30T00:21:28.093Z,99.99
2017-12-30T00:22:28.069Z,99.99
2017-12-30T00:23:28.085Z,99.99
2017-12-30T00:24:28.324Z,99.99
2017-12-30T00:25:28.056Z,99.99
2017-12-30T00:26:28.047Z,99.99
2017-12-30T00:27:28.298Z,99.99
2017-12-30T00:28:28.288Z,99.99
2017-12-30T00:29:28.031Z,99.99
2017-12-30T00:30:28.253Z,99.99
2017-12-30T00:31:28.006Z,99.99
2017-12-30T00:32:28.239Z,99.99
2017-12-30T00:33:28.240Z,99.99
2017-12-30T00:34:28.227Z,99.99
2017-12-30T00:35:27.974Z,99.99
2017-12-30T00:36:27.968Z,99.99
2017-12-30T00:37:27.945Z,99.99
2017-12-30T00:38:28.222Z,99.99
2017-12-30T00:39:28.196Z,99.99
2017-12-30T00:40:28.189Z,99.99
2017-12-30T00:41:28.155Z,99.99
2017-12-30T00:42:28.166Z,99.99
2017-12-30T00:43:27.887Z,99.99
2017-12-30T00:44:28.172Z,99.99
2017-12-30T00:45:28.152Z,99.99
2017-12-30T00:46:27.885Z,99.99
2017-12-30T00:47:28.106Z,99.99
2017-12-30T00:48:28.123Z,99.99
2017-12-30T00:49:28.100Z,99.99
2017-12-30T00:50:28.105Z,99.99
2017-12-30T00:51:28.088Z,99.99
2017-12-30T00:52:27.832Z,99.99
2017-12-30T00:53:28.090Z,99.99
2017-12-30T00:54:27.796Z,99.99
2017-12-30T00:55:27.799Z,99.99
2017-12-30T00:56:28.050Z,99.99
2017-12-30T00:57:28.056Z,99.99
2017-12-30T00:58:28.016Z,99.99
2017-12-30T00:59:28.032Z,99.99
2017-12-30T01:00:28.013Z,99.99
2017-12-30T01:01:27.992Z,99.99
2017-12-30T01:02:27.979Z,99.99
2017-12-30T01:03:27.732Z,99.99
2017-12-30T01:04:27.723Z,99.99
2017-12-30T01:05:27.970Z,99.99
2017-12-30T01:06:27.975Z,99.99
2017-12-30T01:07:27.934Z,99.99
2017-12-30T01:08:27.678Z,99.99
2017-12-30T01:09:27.669Z,99.99
2017-12-30T01:10:27.660Z,99.99
2017-12-30T01:11:27.653Z,99.99
2017-12-30T01:12:27.645Z,99.99
2017-12-30T01:13:27.891Z,99.99
2017-12-30T01:14:27.880Z,99.99
2017-12-30T01:15:27.882Z,99.99
2017-12-30T01:16:27.863Z,99.99
2017-12-30T01:17:27.851Z,99.99
2017-12-30T01:18:27.847Z,99.99
2017-12-30T01:19:27.839Z,99.99
2017-12-30T01:20:27.575Z,99.99
2017-12-30T01:21:27.822Z,99.99
2017-12-30T01:22:27.812Z,99.99
2017-12-30T01:23:27.800Z,99.99
2017-12-30T01:24:27.799Z,99.99
2017-12-30T01:25:27.536Z,99.99
2017-12-30T01:26:27.773Z,99.99
2017-12-30T01:27:27.769Z,99.99
2017-12-30T01:28:27.756Z,99.99
2017-12-30T01:29:27.492Z,99.99
2017-12-30T01:30:27.637Z,99.99
2017-12-30T01:31:27.726Z,99.99
2017-12-30T01:32:27.718Z,99.99
2017-12-30T01:33:27.711Z,99.99
2017-12-30T01:34:27.698Z,99.99
2017-12-30T01:35:27.696Z,99.99
2017-12-30T01:36:27.681Z,99.99
2017-12-30T01:37:27.431Z,99.99
2017-12-30T01:38:27.667Z,99.99
2017-12-30T01:39:27.411Z,99.99
2017-12-30T01:40:27.410Z,99.99
2017-12-30T01:41:27.639Z,99.99
2017-12-30T01:42:27.721Z,99.99
2017-12-30T01:43:27.614Z,99.99
2017-12-30T01:44:27.636Z,99.99
2017-12-30T01:45:27.624Z,99.99
2017-12-30T01:46:27.594Z,99.99
2017-12-30T01:47:27.335Z,99.99
2017-12-30T01:48:27.323Z,99.99
2017-12-30T01:49:27.573Z,99.99
2017-12-30T01:50:27.554Z,99.99
2017-12-30T01:51:27.307Z,99.99
2017-12-30T01:52:27.562Z,99.99
2017-12-30T01:53:27.283Z,99.99
2017-12-30T01:54:27.522Z,99.99
2017-12-30T01:55:27.506Z,99.99
2017-12-30T01:56:27.497Z,99.99
2017-12-30T01:57:27.487Z,99.99
2017-12-30T01:58:27.488Z,99.99
2017-12-30T01:59:27.475Z,99.99
2017-12-30T02:00:27.468Z,99.99
2017-12-30T02:01:27.454Z,99.99
2017-12-30T02:02:27.454Z,99.99
2017-12-30T02:03:27.183Z,99.99
2017-12-30T02:04:27.176Z,99.99
2017-12-30T02:05:27.417Z,99.99
2017-12-30T02:06:27.410Z,99.99
2017-12-30T02:07:27.399Z,99.99
2017-12-30T02:08:27.395Z,99.99
2017-12-30T02:09:27.380Z,99.99
2017-12-30T02:10:27.394Z,99.99
2017-12-30T02:11:27.378Z,99.99
2017-12-30T02:12:27.358Z,99.99
2017-12-30T02:13:27.352Z,99.99
2017-12-30T02:14:27.087Z,99.99
2017-12-30T02:15:30.591Z,99.99
2017-12-30T02:16:27.323Z,99.99
2017-12-30T02:17:27.307Z,99.99
2017-12-30T02:18:27.049Z,99.99
2017-12-30T02:19:27.338Z,99.99
2017-12-30T02:20:27.033Z,99.99
2017-12-30T02:21:27.277Z,99.99
2017-12-30T02:22:27.269Z,99.99
2017-12-30T02:23:27.263Z,99.99
2017-12-30T02:24:27.246Z,99.99
2017-12-30T02:25:27.240Z,99.99
2017-12-30T02:26:27.230Z,99.99
2017-12-30T02:27:26.972Z,99.99
2017-12-30T02:28:27.214Z,99.99
2017-12-30T02:29:26.952Z,99.99
2017-12-30T02:30:27.201Z,99.99
2017-12-30T02:31:27.189Z,99.99
2017-12-30T02:32:26.926Z,99.99
2017-12-30T02:33:26.918Z,99.99
2017-12-30T02:34:27.157Z,99.99
2017-12-30T02:35:27.153Z,99.99
2017-12-30T02:36:26.891Z,99.99
2017-12-30T02:37:27.153Z,99.99
2017-12-30T02:38:27.128Z,99.99
2017-12-30T02:39:27.116Z,99.99
2017-12-30T02:40:27.130Z,99.99
2017-12-30T02:41:26.850Z,99.99
2017-12-30T02:42:27.094Z,99.99
2017-12-30T02:43:26.832Z,99.99
2017-12-30T02:44:27.075Z,99.99
2017-12-30T02:45:27.097Z,99.99
2017-12-30T02:46:29.462Z,99.99
2017-12-30T02:47:27.048Z,99.99
2017-12-30T02:48:27.040Z,99.99
2017-12-30T02:49:27.037Z,99.99
2017-12-30T02:50:27.036Z,99.99
2017-12-30T02:51:27.015Z,99.99
2017-12-30T02:52:27.039Z,99.99
2017-12-30T02:53:27.001Z,99.99
2017-12-30T02:54:27.000Z,99.99
2017-12-30T02:55:26.975Z,99.99
2017-12-30T02:56:26.975Z,99.99
2017-12-30T02:57:26.959Z,99.99
2017-12-30T02:58:26.706Z,99.99
2017-12-30T02:59:26.944Z,99.99
2017-12-30T03:00:26.946Z,99.99
2017-12-30T03:01:26.924Z,99.99
2017-12-30T03:02:26.661Z,99.99
2017-12-30T03:03:26.904Z,99.99
2017-12-30T03:04:26.658Z,99.99
2017-12-30T03:05:26.635Z,99.99
2017-12-30T03:06:26.879Z,99.99
2017-12-30T03:07:26.867Z,99.99
2017-12-30T03:08:26.859Z,99.99
2017-12-30T03:09:26.852Z,99.99
2017-12-30T03:10:26.590Z,99.99
2017-12-30T03:11:26.831Z,99.99
2017-12-30T03:12:26.823Z,99.99
2017-12-30T03:13:26.813Z,99.99
2017-12-30T03:14:26.809Z,99.99
2017-12-30T03:15:26.545Z,99.99
2017-12-30T03:16:26.786Z,99.99
2017-12-30T03:17:26.786Z,99.99
2017-12-30T03:18:26.517Z,99.99
2017-12-30T03:19:26.761Z,99.99
2017-12-30T03:20:26.752Z,99.99
2017-12-30T03:21:26.492Z,99.99
2017-12-30T03:22:26.484Z,99.99
2017-12-30T03:23:26.722Z,99.99
2017-12-30T03:24:26.464Z,99.99
2017-12-30T03:25:26.462Z,99.99
2017-12-30T03:26:26.698Z,99.99
2017-12-30T03:27:26.437Z,99.99
2017-12-30T03:28:26.681Z,99.99
2017-12-30T03:29:26.681Z,99.99
2017-12-30T03:30:26.666Z,99.99
2017-12-30T03:31:26.660Z,99.99
2017-12-30T03:32:26.394Z,99.99
2017-12-30T03:33:26.648Z,99.99
2017-12-30T03:34:26.625Z,99.99
2017-12-30T03:35:26.618Z,99.99
2017-12-30T03:36:26.614Z,99.99
2017-12-30T03:37:26.352Z,99.99
2017-12-30T03:38:26.594Z,99.99
2017-12-30T03:39:26.590Z,99.99
2017-12-30T03:40:26.571Z,99.99
2017-12-30T03:41:26.316Z,99.99
2017-12-30T03:42:26.302Z,99.99
2017-12-30T03:43:26.546Z,99.99
2017-12-30T03:44:26.285Z,99.99
2017-12-30T03:45:26.536Z,99.99
2017-12-30T03:46:26.516Z,99.99
2017-12-30T03:47:26.509Z,99.99
2017-12-30T03:48:26.498Z,99.99
2017-12-30T03:49:26.247Z,99.99
2017-12-30T03:50:26.237Z,99.99
2017-12-30T03:51:26.479Z,99.99
2017-12-30T03:52:26.465Z,99.99
2017-12-30T03:53:26.456Z,99.99
2017-12-30T03:54:26.448Z,99.99
2017-12-30T03:55:26.438Z,99.99
2017-12-30T03:56:26.184Z,99.99
2017-12-30T03:57:26.420Z,99.99
2017-12-30T03:58:26.165Z,99.99
2017-12-30T03:59:26.156Z,99.99
2017-12-30T04:00:26.146Z,99.99
2017-12-30T04:01:26.386Z,99.99
2017-12-30T04:02:26.628Z,99.99
2017-12-30T04:03:26.375Z,99.99
2017-12-30T04:04:26.359Z,99.99
2017-12-30T04:05:26.098Z,99.99
2017-12-30T04:06:26.090Z,99.99
2017-12-30T04:07:26.344Z,99.99
2017-12-30T04:08:26.322Z,99.99
2017-12-30T04:09:26.322Z,99.99
2017-12-30T04:10:26.078Z,99.99
2017-12-30T04:11:26.297Z,99.99
2017-12-30T04:12:26.041Z,99.99
2017-12-30T04:13:26.034Z,99.99
2017-12-30T04:14:26.018Z,99.99
2017-12-30T04:15:26.010Z,99.99
2017-12-30T04:16:26.257Z,99.99
2017-12-30T04:17:26.243Z,99.99
2017-12-30T04:18:26.235Z,99.99
2017-12-30T04:19:26.228Z,99.99
2017-12-30T04:20:26.216Z,99.99
2017-12-30T04:21:26.210Z,99.99
2017-12-30T04:22:26.201Z,99.99
2017-12-30T04:23:26.196Z,99.99
2017-12-30T04:24:26.182Z,99.99
2017-12-30T04:25:26.172Z,99.99
2017-12-30T04:26:25.915Z,99.99
2017-12-30T04:27:25.904Z,99.99
2017-12-30T04:28:26.154Z,99.99
2017-12-30T04:29:26.138Z,99.99
2017-12-30T04:30:25.882Z,99.99
2017-12-30T04:31:26.126Z,99.99
2017-12-30T04:32:26.139Z,99.99
2017-12-30T04:33:26.111Z,99.99
2017-12-30T04:34:26.102Z,99.99
2017-12-30T04:35:26.082Z,99.99
2017-12-30T04:36:26.077Z,99.99
2017-12-30T04:37:26.066Z,99.99
2017-12-30T04:38:26.056Z,99.99
2017-12-30T04:39:26.046Z,99.99
2017-12-30T04:40:26.038Z,99.99
2017-12-30T04:41:25.780Z,99.99
2017-12-30T04:42:26.023Z,99.99
2017-12-30T04:43:25.760Z,99.99
2017-12-30T04:44:26.002Z,99.99
2017-12-30T04:45:25.999Z,99.99
2017-12-30T04:46:25.984Z,99.99
2017-12-30T04:47:25.974Z,99.99
2017-12-30T04:48:25.714Z,99.99
2017-12-30T04:49:25.957Z,99.99
2017-12-30T04:50:25.702Z,99.99
2017-12-30T04:51:25.688Z,99.99
2017-12-30T04:52:25.930Z,99.99
2017-12-30T04:53:25.924Z,99.99
2017-12-30T04:54:25.918Z,99.99
2017-12-30T04:55:25.902Z,99.99
2017-12-30T04:56:25.900Z,99.99
2017-12-30T04:57:25.883Z,99.99
2017-12-30T04:58:25.622Z,99.99
2017-12-30T04:59:25.874Z,99.99
2017-12-30T05:00:25.874Z,99.99
2017-12-30T05:01:25.845Z,99.99
2017-12-30T05:02:25.841Z,99.99
2017-12-30T05:03:25.579Z,99.99
2017-12-30T05:04:25.826Z,99.99
2017-12-30T05:05:25.563Z,99.99
2017-12-30T05:06:25.803Z,99.99
2017-12-30T05:07:25.542Z,99.99
2017-12-30T05:08:25.792Z,99.99
2017-12-30T05:09:25.524Z,99.99
2017-12-30T05:10:25.768Z,99.99
2017-12-30T05:11:25.757Z,99.99
2017-12-30T05:12:25.748Z,99.99
2017-12-30T05:13:25.739Z,99.99
2017-12-30T05:14:25.733Z,99.99
2017-12-30T05:15:25.478Z,99.99
2017-12-30T05:16:25.715Z,99.99
2017-12-30T05:17:25.704Z,99.99
2017-12-30T05:18:25.446Z,99.99
2017-12-30T05:19:25.686Z,99.99
2017-12-30T05:20:25.680Z,99.99
2017-12-30T05:21:25.673Z,99.99
2017-12-30T05:22:25.425Z,99.99
2017-12-30T05:23:25.658Z,99.99
2017-12-30T05:24:25.398Z,99.99
2017-12-30T05:25:25.632Z,99.99
2017-12-30T05:26:25.627Z,99.99
2017-12-30T05:27:25.619Z,99.99
2017-12-30T05:28:25.611Z,99.99
2017-12-30T05:29:25.605Z,99.99
2017-12-30T05:30:25.358Z,99.99
2017-12-30T05:31:25.347Z,99.99
2017-12-30T05:32:25.573Z,99.99
2017-12-30T05:33:25.815Z,99.99
2017-12-30T05:34:25.555Z,99.99
2017-12-30T05:35:25.569Z,99.99
2017-12-30T05:36:25.538Z,99.99
2017-12-30T05:37:25.536Z,99.99
2017-12-30T05:38:25.519Z,99.99
2017-12-30T05:39:25.513Z,99.99
2017-12-30T05:40:25.508Z,99.99
2017-12-30T05:41:25.246Z,99.99
2017-12-30T05:42:25.495Z,99.99
2017-12-30T05:43:25.224Z,99.99
2017-12-30T05:44:25.472Z,99.99
2017-12-30T05:45:25.457Z,99.99
2017-12-30T05:46:25.201Z,99.99
2017-12-30T05:47:25.196Z,99.99
2017-12-30T05:48:25.451Z,99.99
2017-12-30T05:49:25.168Z,99.99
2017-12-30T05:50:25.162Z,99.99
2017-12-30T05:51:25.203Z,99.99
2017-12-30T05:52:25.420Z,99.99
2017-12-30T05:53:25.450Z,99.99
2017-12-30T05:54:25.395Z,99.99
2017-12-30T05:55:25.375Z,99.99
2017-12-30T05:56:25.370Z,99.99
2017-12-30T05:57:25.364Z,99.99
2017-12-30T05:58:25.363Z,99.99
2017-12-30T05:59:25.344Z,99.99
2017-12-30T06:00:25.079Z,99.99
2017-12-30T06:01:25.337Z,99.99
2017-12-30T06:02:25.059Z,99.99
2017-12-30T06:03:25.058Z,99.99
2017-12-30T06:04:25.294Z,99.99
2017-12-30T06:05:25.037Z,99.99
2017-12-30T06:06:25.024Z,99.99
2017-12-30T06:07:25.021Z,99.99
2017-12-30T06:08:25.262Z,99.99
2017-12-30T06:09:25.000Z,99.99
2017-12-30T06:10:25.241Z,99.99
2017-12-30T06:11:24.991Z,99.99
2017-12-30T06:12:25.225Z,99.99
2017-12-30T06:13:25.216Z,99.99
2017-12-30T06:14:25.210Z,99.99
2017-12-30T06:15:25.201Z,99.99
2017-12-30T06:16:25.216Z,99.99
2017-12-30T06:17:25.235Z,99.99
2017-12-30T06:18:25.257Z,99.99
2017-12-30T06:19:25.168Z,99.99
2017-12-30T06:20:24.906Z,99.99
2017-12-30T06:21:24.903Z,99.99
2017-12-30T06:22:24.891Z,99.99
2017-12-30T06:23:24.883Z,99.99
2017-12-30T06:24:25.148Z,99.99
2017-12-30T06:25:25.123Z,99.99
2017-12-30T06:26:24.861Z,99.99
2017-12-30T06:27:24.846Z,99.99
2017-12-30T06:28:25.095Z,99.99
2017-12-30T06:29:25.085Z,99.99
2017-12-30T06:30:25.076Z,99.99
2017-12-30T06:31:24.815Z,99.99
2017-12-30T06:32:24.804Z,99.99
2017-12-30T06:33:25.051Z,99.99
2017-12-30T06:34:25.045Z,99.99
2017-12-30T06:35:24.781Z,99.99
2017-12-30T06:36:24.792Z,99.99
2017-12-30T06:37:24.778Z,99.99
2017-12-30T06:38:25.010Z,99.99
2017-12-30T06:39:24.997Z,99.99
2017-12-30T06:40:24.991Z,99.99
2017-12-30T06:41:24.985Z,99.99
2017-12-30T06:42:24.729Z,99.99
2017-12-30T06:43:24.726Z,99.99
2017-12-30T06:44:24.971Z,99.99
2017-12-30T06:45:25.004Z,99.99
2017-12-30T06:46:24.946Z,99.99
2017-12-30T06:47:24.936Z,99.99
2017-12-30T06:48:24.963Z,99.99
2017-12-30T06:49:24.978Z,99.99
2017-12-30T06:50:24.658Z,99.99
2017-12-30T06:51:24.674Z,99.99
2017-12-30T06:52:24.892Z,99.99
2017-12-30T06:53:24.886Z,99.99
2017-12-30T06:54:24.626Z,99.99
2017-12-30T06:55:24.617Z,99.99
2017-12-30T06:56:24.627Z,99.99
2017-12-30T06:57:24.855Z,99.99
2017-12-30T06:58:24.844Z,99.99
2017-12-30T06:59:24.587Z,99.99
2017-12-30T07:00:24.587Z,99.99
2017-12-30T07:01:24.829Z,99.99
2017-12-30T07:02:24.815Z,99.99
2017-12-30T07:03:24.811Z,99.99
2017-12-30T07:04:25.595Z,99.99
2017-12-30T07:05:24.798Z,99.99
2017-12-30T07:06:24.800Z,99.99
2017-12-30T07:07:24.770Z,99.99
2017-12-30T07:08:24.785Z,99.99
2017-12-30T07:09:24.504Z,99.99
2017-12-30T07:10:24.747Z,99.99
2017-12-30T07:11:24.499Z,99.99
2017-12-30T07:12:24.744Z,99.99
2017-12-30T07:13:24.745Z,99.99
2017-12-30T07:14:24.465Z,99.99
2017-12-30T07:15:24.708Z,99.99
2017-12-30T07:16:24.467Z,99.99
2017-12-30T07:17:24.441Z,99.99
2017-12-30T07:18:24.473Z,99.99
2017-12-30T07:19:24.574Z,99.99
2017-12-30T07:20:24.688Z,99.99
2017-12-30T07:21:24.436Z,99.99
2017-12-30T07:22:24.401Z,99.99
2017-12-30T07:23:24.646Z,99.99
2017-12-30T07:24:24.388Z,99.99
2017-12-30T07:25:24.387Z,99.99
2017-12-30T07:26:24.631Z,99.99
2017-12-30T07:27:24.368Z,99.99
2017-12-30T07:28:24.614Z,99.99
2017-12-30T07:29:24.596Z,99.99
2017-12-30T07:30:24.595Z,99.99
2017-12-30T07:31:24.348Z,99.99
2017-12-30T07:32:24.573Z,99.99
2017-12-30T07:33:24.567Z,99.99
2017-12-30T07:34:25.509Z,99.99
2017-12-30T07:35:24.335Z,99.99
2017-12-30T07:36:24.545Z,99.99
2017-12-30T07:37:24.281Z,99.99
2017-12-30T07:38:24.527Z,99.99
2017-12-30T07:39:24.516Z,99.99
2017-12-30T07:40:24.556Z,99.99
2017-12-30T07:41:24.507Z,99.99
2017-12-30T07:42:24.494Z,99.99
2017-12-30T07:43:24.484Z,99.99
2017-12-30T07:44:24.479Z,99.99
2017-12-30T07:45:24.475Z,99.99
2017-12-30T07:46:24.473Z,99.99
2017-12-30T07:47:24.449Z,99.99
2017-12-30T07:48:24.449Z,99.99
2017-12-30T07:49:24.437Z,99.99
2017-12-30T07:50:24.177Z,99.99
2017-12-30T07:51:24.178Z,99.99
2017-12-30T07:52:24.410Z,99.99
2017-12-30T07:53:24.149Z,99.99
2017-12-30T07:54:24.402Z,99.99
2017-12-30T07:55:24.385Z,99.99
2017-12-30T07:56:24.143Z,99.99
2017-12-30T07:57:24.367Z,99.99
2017-12-30T07:58:24.108Z,99.99
2017-12-30T07:59:24.101Z,99.99
2017-12-30T08:00:24.341Z,99.99
2017-12-30T08:01:24.349Z,99.99
2017-12-30T08:02:24.076Z,99.99
2017-12-30T08:03:24.328Z,99.99
2017-12-30T08:04:24.313Z,99.99
2017-12-30T08:05:24.050Z,99.99
2017-12-30T08:06:24.305Z,99.99
2017-12-30T08:07:24.285Z,99.99
2017-12-30T08:08:24.026Z,99.99
2017-12-30T08:09:24.016Z,99.99
2017-12-30T08:10:24.007Z,99.99
2017-12-30T08:11:24.278Z,99.99
2017-12-30T08:12:24.251Z,99.99
2017-12-30T08:13:24.233Z,99.99
2017-12-30T08:14:24.230Z,99.99
2017-12-30T08:15:23.966Z,99.99
2017-12-30T08:16:24.223Z,99.99
2017-12-30T08:17:24.208Z,99.99
2017-12-30T08:18:24.195Z,99.99
2017-12-30T08:19:23.930Z,99.99
2017-12-30T08:20:23.923Z,99.99
2017-12-30T08:21:24.234Z,99.99
2017-12-30T08:22:24.161Z,99.99
2017-12-30T08:23:24.152Z,99.99
2017-12-30T08:24:24.143Z,99.99
2017-12-30T08:25:23.880Z,99.99
2017-12-30T08:26:23.873Z,99.99
2017-12-30T08:27:23.870Z,99.99
2017-12-30T08:28:23.855Z,99.99
2017-12-30T08:29:23.845Z,99.99
2017-12-30T08:30:24.089Z,99.99
2017-12-30T08:31:24.083Z,99.99
2017-12-30T08:32:24.069Z,99.99
2017-12-30T08:33:24.062Z,99.99
2017-12-30T08:34:24.053Z,99.99
2017-12-30T08:35:24.043Z,99.99
2017-12-30T08:36:24.033Z,99.99
2017-12-30T08:37:24.034Z,99.99
2017-12-30T08:38:24.025Z,99.99
2017-12-30T08:39:24.013Z,99.99
2017-12-30T08:40:24.002Z,99.99
2017-12-30T08:41:23.740Z,99.99
2017-12-30T08:42:23.731Z,99.99
2017-12-30T08:43:23.728Z,99.99
2017-12-30T08:44:23.716Z,99.99
2017-12-30T08:45:23.962Z,99.99
2017-12-30T08:46:23.952Z,99.99
2017-12-30T08:47:23.688Z,99.99
2017-12-30T08:48:23.930Z,99.99
2017-12-30T08:49:23.925Z,99.99
2017-12-30T08:50:23.814Z,99.99
2017-12-30T08:51:23.655Z,99.99
2017-12-30T08:52:23.652Z,99.99
2017-12-30T08:53:23.894Z,99.99
2017-12-30T08:54:23.886Z,99.99
2017-12-30T08:55:23.621Z,99.99
2017-12-30T08:56:23.865Z,99.99
2017-12-30T08:57:23.861Z,99.99
2017-12-30T08:58:23.861Z,99.99
2017-12-30T08:59:23.838Z,99.99
2017-12-30T09:00:23.830Z,99.99
2017-12-30T09:01:23.823Z,99.99
2017-12-30T09:02:23.577Z,99.99
2017-12-30T09:03:23.807Z,99.99
2017-12-30T09:04:23.550Z,99.99
2017-12-30T09:05:23.844Z,99.99
2017-12-30T09:06:23.784Z,99.99
2017-12-30T09:07:23.783Z,99.99
2017-12-30T09:08:23.514Z,99.99
2017-12-30T09:09:23.517Z,99.99
2017-12-30T09:10:23.748Z,99.99
2017-12-30T09:11:23.488Z,99.99
2017-12-30T09:12:23.485Z,99.99
2017-12-30T09:13:23.722Z,99.99
2017-12-30T09:14:23.465Z,99.99
2017-12-30T09:15:23.708Z,99.99
2017-12-30T09:16:23.452Z,99.99
2017-12-30T09:17:23.688Z,99.99
2017-12-30T09:18:23.685Z,99.99
2017-12-30T09:19:23.679Z,99.99
2017-12-30T09:20:23.666Z,99.99
2017-12-30T09:21:23.656Z,99.99
2017-12-30T09:22:23.649Z,99.99
2017-12-30T09:23:23.392Z,99.99
2017-12-30T09:24:23.631Z,99.99
2017-12-30T09:25:23.625Z,99.99
2017-12-30T09:26:23.621Z,99.99
2017-12-30T09:27:23.617Z,99.99
2017-12-30T09:28:23.362Z,99.99
2017-12-30T09:29:23.611Z,99.99
2017-12-30T09:30:24.394Z,99.99
2017-12-30T09:31:23.327Z,99.99
2017-12-30T09:32:23.573Z,99.99
2017-12-30T09:33:23.576Z,99.99
2017-12-30T09:34:23.558Z,99.99
2017-12-30T09:35:26.249Z,99.99
2017-12-30T09:36:23.552Z,99.99
2017-12-30T09:37:23.535Z,99.99
2017-12-30T09:38:23.533Z,99.99
2017-12-30T09:39:23.533Z,99.99
2017-12-30T09:40:23.272Z,99.99
2017-12-30T09:41:23.258Z,99.99
2017-12-30T09:42:23.503Z,99.99
2017-12-30T09:43:23.239Z,99.99
2017-12-30T09:44:23.228Z,99.99
2017-12-30T09:45:23.477Z,99.99
2017-12-30T09:46:23.461Z,99.99
2017-12-30T09:47:23.461Z,99.99
2017-12-30T09:48:23.462Z,99.99
2017-12-30T09:49:23.190Z,99.99
2017-12-30T09:50:23.435Z,99.99
2017-12-30T09:51:23.426Z,99.99
2017-12-30T09:52:23.174Z,99.99
2017-12-30T09:53:23.161Z,99.99
2017-12-30T09:54:23.407Z,99.99
2017-12-30T09:55:23.153Z,99.99
2017-12-30T09:56:23.388Z,99.99
2017-12-30T09:57:23.146Z,99.99
2017-12-30T09:58:23.120Z,99.99
2017-12-30T09:59:23.369Z,99.99
2017-12-30T10:00:23.359Z,99.99
2017-12-30T10:01:23.104Z,99.99
2017-12-30T10:02:23.100Z,99.99
2017-12-30T10:03:23.103Z,99.99
2017-12-30T10:04:23.343Z,99.99
2017-12-30T10:05:23.329Z,99.99
2017-12-30T10:06:23.067Z,99.99
2017-12-30T10:07:23.319Z,99.99
2017-12-30T10:08:23.306Z,99.99
2017-12-30T10:09:23.042Z,99.99
2017-12-30T10:10:23.068Z,99.99
2017-12-30T10:11:23.278Z,99.99
2017-12-30T10:12:23.274Z,99.99
2017-12-30T10:13:23.012Z,99.99
2017-12-30T10:14:23.255Z,99.99
2017-12-30T10:15:23.253Z,99.99
2017-12-30T10:16:23.241Z,99.99
2017-12-30T10:17:22.983Z,99.99
2017-12-30T10:18:22.973Z,99.99
2017-12-30T10:19:22.965Z,99.99
2017-12-30T10:20:22.966Z,99.99
2017-12-30T10:21:22.963Z,99.99
2017-12-30T10:22:22.945Z,99.99
2017-12-30T10:52:44.198Z,99.99
2017-12-30T10:53:43.947Z,99.99
2017-12-30T10:54:43.705Z,99.99
2017-12-30T10:55:43.979Z,99.99
2017-12-30T10:56:43.890Z,99.78
2017-12-30T10:57:43.879Z,99.3
2017-12-30T10:58:43.626Z,99.59
2017-12-30T10:59:43.861Z,99.88
2017-12-30T11:00:43.852Z,99.88
2017-12-30T11:01:43.603Z,98.74
2017-12-30T11:02:43.834Z,99.3
2017-12-30T11:03:43.830Z,98.64
2017-12-30T11:04:43.827Z,98.74
2017-12-30T11:05:43.841Z,98.64
2017-12-30T11:06:43.803Z,99.21
2017-12-30T11:07:43.552Z,98.64
2017-12-30T11:08:43.797Z,98.64
2017-12-30T11:09:43.798Z,99.02
2017-12-30T11:10:43.776Z,99.3
2017-12-30T11:11:43.772Z,99.11
2017-12-30T11:12:43.524Z,99.78
2017-12-30T11:13:43.754Z,99.88
2017-12-30T11:14:43.523Z,99.99
2017-12-30T11:15:43.497Z,99.99
2017-12-30T11:16:43.739Z,99.59
2017-12-30T11:17:43.737Z,99.02
2017-12-30T11:18:43.730Z,99.78
2017-12-30T11:19:43.717Z,99.5
2017-12-30T11:20:43.466Z,99.21
2017-12-30T11:21:43.803Z,99.97
2017-12-30T11:22:43.750Z,99.97
2017-12-30T11:23:43.705Z,99.78
2017-12-30T11:24:43.451Z,99.69
2017-12-30T11:25:43.444Z,99.99
2017-12-30T11:26:43.747Z,99.97
2017-12-30T11:27:43.748Z,99.99
2017-12-30T11:28:43.429Z,99.59
2017-12-30T11:29:43.665Z,99.99
2017-12-30T11:30:43.655Z,99.21
2017-12-30T11:31:43.658Z,99.11
2017-12-30T11:32:43.648Z,99.84
2017-12-30T11:33:43.645Z,99.55
2017-12-30T11:34:43.640Z,98.79
2017-12-30T11:35:43.378Z,98.97
2017-12-30T11:36:43.374Z,99.4
2017-12-30T11:37:43.369Z,99.99
2017-12-30T11:38:43.622Z,99.99
2017-12-30T11:39:43.620Z,99.78
2017-12-30T11:40:43.607Z,99.84
2017-12-30T11:41:43.644Z,99.88
2017-12-30T11:42:43.345Z,99.99
2017-12-30T11:43:43.345Z,99.99
2017-12-30T11:44:43.595Z,99.99
2017-12-30T11:45:43.328Z,99.99
2017-12-30T11:46:43.324Z,99.99
2017-12-30T11:47:43.317Z,99.99
2017-12-30T11:48:43.313Z,99.99
2017-12-30T11:49:43.571Z,99.99
2017-12-30T11:50:43.306Z,99.99
2017-12-30T11:51:43.296Z,99.99
2017-12-30T11:52:43.292Z,99.99
2017-12-30T11:53:43.541Z,99.99
2017-12-30T11:54:43.557Z,99.99
2017-12-30T11:55:43.545Z,99.99
2017-12-30T11:56:43.543Z,99.99
2017-12-30T11:57:43.544Z,99.99
2017-12-30T11:58:43.262Z,99.99
2017-12-30T11:59:43.257Z,99.99
2017-12-30T12:00:43.521Z,99.99
2017-12-30T12:01:43.505Z,99.99
2017-12-30T12:02:43.240Z,99.99
2017-12-30T12:03:43.233Z,99.99
2017-12-30T12:04:43.503Z,99.99
2017-12-30T12:05:43.490Z,99.99
2017-12-30T12:06:43.238Z,99.99
2017-12-30T12:07:43.488Z,99.99
2017-12-30T12:08:43.210Z,99.99
2017-12-30T12:09:43.460Z,99.99
2017-12-30T12:10:43.459Z,99.99
2017-12-30T12:11:43.193Z,99.99
2017-12-30T12:12:43.447Z,99.99
2017-12-30T12:13:43.451Z,99.99
2017-12-30T12:14:43.437Z,99.99
2017-12-30T12:15:43.179Z,99.99
2017-12-30T12:16:43.179Z,99.99
2017-12-30T12:17:43.173Z,99.99
2017-12-30T12:18:43.478Z,99.99
2017-12-30T12:19:43.399Z,99.99
2017-12-30T12:20:43.400Z,99.99
2017-12-30T12:21:43.390Z,99.99
2017-12-30T12:22:43.332Z,99.99
2017-12-30T12:23:43.382Z,99.99
2017-12-30T12:24:43.374Z,99.99
2017-12-30T12:25:43.121Z,99.99
2017-12-30T12:26:43.115Z,99.99
2017-12-30T12:27:43.107Z,99.99
2017-12-30T12:28:43.355Z,99.99
2017-12-30T12:29:43.357Z,99.99
2017-12-30T12:30:43.353Z,99.99
2017-12-30T12:31:43.339Z,99.99
2017-12-30T12:32:43.356Z,99.99
2017-12-30T12:33:43.347Z,99.99
2017-12-30T12:34:43.077Z,99.99
2017-12-30T12:35:43.323Z,99.99
2017-12-30T12:36:43.322Z,99.99
2017-12-30T12:37:43.312Z,99.99
2017-12-30T12:38:43.309Z,99.99
2017-12-30T12:39:43.302Z,99.99
2017-12-30T12:40:43.303Z,99.99
2017-12-30T12:41:43.049Z,99.99
2017-12-30T12:42:43.042Z,99.99
2017-12-30T12:43:43.285Z,99.99
2017-12-30T12:44:43.288Z,99.99
2017-12-30T12:45:43.276Z,99.99
2017-12-30T12:46:43.269Z,99.99
2017-12-30T12:47:43.265Z,99.99
2017-12-30T12:48:43.012Z,99.99
2017-12-30T12:49:43.006Z,99.99
2017-12-30T12:50:43.001Z,99.99
2017-12-30T12:51:42.998Z,99.99
2017-12-30T12:52:43.244Z,99.99
2017-12-30T12:53:43.239Z,99.99
2017-12-30T12:54:43.240Z,99.99
2017-12-30T12:55:42.979Z,99.99
2017-12-30T12:56:43.225Z,99.99
2017-12-30T12:57:43.228Z,99.99
2017-12-30T12:58:43.238Z,99.99
2017-12-30T12:59:43.211Z,99.99
2017-12-30T13:00:43.224Z,99.99
2017-12-30T13:01:43.220Z,99.99
2017-12-30T13:02:42.960Z,99.99
2017-12-30T13:03:43.193Z,99.99
2017-12-30T13:04:43.201Z,99.99
2017-12-30T13:05:43.189Z,99.99
2017-12-30T13:06:43.185Z,99.99
2017-12-30T13:07:42.928Z,99.99
2017-12-30T13:08:43.174Z,99.99
2017-12-30T13:09:43.172Z,99.99
2017-12-30T13:10:42.915Z,99.99
2017-12-30T13:11:43.159Z,99.99
2017-12-30T13:12:42.927Z,99.99
2017-12-30T13:13:43.175Z,99.99
2017-12-30T13:14:43.188Z,99.99
2017-12-30T13:15:43.142Z,99.99
2017-12-30T13:16:43.160Z,99.99
2017-12-30T13:17:42.883Z,99.99
2017-12-30T13:18:42.880Z,99.99
2017-12-30T13:19:43.127Z,99.99
2017-12-30T13:20:43.122Z,99.99
2017-12-30T13:21:43.121Z,99.99